ウラジオストク の空港の天気 - METARとTAF

ウラジオストク空港 ( UHWW / VVO ) - ロシア ウラジオストク
飛行場実況気象(Metar)
観測時間05/29 08:30 VLAT (05/28 22:30 UTC)
風向・風速西南西 4m/s
視程10km以上
天気現象
全天の4割程度の雲 雲底高度 270m
気温14℃
湿度88%
気圧1004hPa
METARUHWW 282230Z 24004MPS 9999 SCT009 14/12 Q1004 R25L/0///70 NOSIG RMK QFE752
過去の天気等 Google飛行場航空写真 Wunderground天気予報

過去48時間のMETAR

飛行場予報(TAF)
発表時間: 5/29 06:00 VLAT (5/28 20:00 UTC)
予報対象時間: 29日7時 VLAT ~ 30日7時 VLAT
風向・風速不定 1m/s
視程10km以上
少しの雲 雲底高度 90m
全天の4割程度の雲 雲底高度 610m
29日8時 VLAT ~ 29日10時 VLAT に徐々に
風向・風速南南西 3m/s 瞬間風速 8m/s
全天の8割程度の雲 雲底高度 910m
29日10時 VLAT ~ 29日20時 VLAT に一時的に
風向・風速南西 11m/s
天気現象弱いしゅう雨
全天の4割程度の積乱雲 雲底高度 550m
TAF UHWW 282000Z 2821/2921 VRB01MPS 9999 FEW003 SCT020
BECMG 2822/2824 21003G08MPS BKN030
TEMPO 2900/2910 22011MPS -SHRA SCT018CB